sensor_id;sensor_type;location;lat;lon;timestamp;pressure;altitude;pressure_sealevel;temperature;humidity
17855;BME280;9053;53.358;6.382;2022-07-22T00:00:48;102004.81;;;17.97;98.50
17855;BME280;9053;53.358;6.382;2022-07-22T00:03:18;101997.72;;;17.99;98.13
17855;BME280;9053;53.358;6.382;2022-07-22T00:05:48;102010.03;;;17.94;97.24
17855;BME280;9053;53.358;6.382;2022-07-22T00:08:18;101995.88;;;17.95;96.91
17855;BME280;9053;53.358;6.382;2022-07-22T00:10:48;101999.44;;;17.95;97.00
17855;BME280;9053;53.358;6.382;2022-07-22T00:13:20;101999.44;;;17.95;96.74
17855;BME280;9053;53.358;6.382;2022-07-22T00:15:50;102001.22;;;17.97;95.73
17855;BME280;9053;53.358;6.382;2022-07-22T00:18:20;101996.84;;;17.99;94.70
17855;BME280;9053;53.358;6.382;2022-07-22T00:20:49;102001.75;;;17.80;93.42
17855;BME280;9053;53.358;6.382;2022-07-22T00:23:19;102005.25;;;17.79;94.33
17855;BME280;9053;53.358;6.382;2022-07-22T00:25:49;102003.53;;;17.80;94.78
17855;BME280;9053;53.358;6.382;2022-07-22T00:28:23;102004.06;;;17.66;93.96
17855;BME280;9053;53.358;6.382;2022-07-22T00:30:52;101998.78;;;17.68;93.34
17855;BME280;9053;53.358;6.382;2022-07-22T00:33:23;101998.06;;;17.75;93.89
17855;BME280;9053;53.358;6.382;2022-07-22T00:35:53;101998.09;;;17.77;93.97
17855;BME280;9053;53.358;6.382;2022-07-22T00:38:23;101996.34;;;17.77;93.37
17855;BME280;9053;53.358;6.382;2022-07-22T00:40:52;101988.50;;;17.82;92.94
17855;BME280;9053;53.358;6.382;2022-07-22T00:43:25;101986.84;;;17.87;92.82
17855;BME280;9053;53.358;6.382;2022-07-22T00:45:54;101992.22;;;17.90;93.00
17855;BME280;9053;53.358;6.382;2022-07-22T00:48:24;101994.00;;;17.89;93.25
17855;BME280;9053;53.358;6.382;2022-07-22T00:50:54;101994.81;;;17.87;93.31
17855;BME280;9053;53.358;6.382;2022-07-22T00:53:24;101987.66;;;17.84;94.23
17855;BME280;9053;53.358;6.382;2022-07-22T00:55:53;101993.00;;;17.86;94.69
17855;BME280;9053;53.358;6.382;2022-07-22T00:58:26;101996.66;;;17.91;95.11
17855;BME280;9053;53.358;6.382;2022-07-22T01:00:56;101991.41;;;17.94;95.16
17855;BME280;9053;53.358;6.382;2022-07-22T01:03:26;101982.47;;;17.90;95.57
17855;BME280;9053;53.358;6.382;2022-07-22T01:05:55;101989.63;;;17.93;95.34
17855;BME280;9053;53.358;6.382;2022-07-22T01:08:25;101991.41;;;17.94;94.40
17855;BME280;9053;53.358;6.382;2022-07-22T01:11:06;101995.88;;;17.97;93.99
17855;BME280;9053;53.358;6.382;2022-07-22T01:13:39;101997.72;;;17.99;93.00
17855;BME280;9053;53.358;6.382;2022-07-22T01:16:10;101995.03;;;17.98;92.27
17855;BME280;9053;53.358;6.382;2022-07-22T01:18:41;102004.84;;;18.00;91.69
17855;BME280;9053;53.358;6.382;2022-07-22T01:21:15;101997.81;;;18.02;91.05
17855;BME280;9053;53.358;6.382;2022-07-22T01:23:45;101990.63;;;17.98;90.53
17855;BME280;9053;53.358;6.382;2022-07-22T01:26:15;101988.75;;;17.94;89.81
17855;BME280;9053;53.358;6.382;2022-07-22T01:28:45;101991.41;;;17.94;89.29
17855;BME280;9053;53.358;6.382;2022-07-22T01:31:15;101990.56;;;17.95;89.09
17855;BME280;9053;53.358;6.382;2022-07-22T01:33:44;101992.44;;;18.01;89.59
17855;BME280;9053;53.358;6.382;2022-07-22T01:36:17;101991.59;;;18.02;90.55
17855;BME280;9053;53.358;6.382;2022-07-22T01:38:47;101988.00;;;18.01;91.21
17855;BME280;9053;53.358;6.382;2022-07-22T01:41:16;101986.22;;;18.00;91.01
17855;BME280;9053;53.358;6.382;2022-07-22T01:43:46;101987.22;;;18.05;91.24
17855;BME280;9053;53.358;6.382;2022-07-22T01:46:16;101988.16;;;18.09;91.10
17855;BME280;9053;53.358;6.382;2022-07-22T01:48:46;101985.50;;;18.07;91.32
17855;BME280;9053;53.358;6.382;2022-07-22T01:51:19;101988.09;;;18.04;91.14
17855;BME280;9053;53.358;6.382;2022-07-22T01:53:49;101993.44;;;18.06;91.20
17855;BME280;9053;53.358;6.382;2022-07-22T01:56:19;101992.50;;;18.02;90.86
17855;BME280;9053;53.358;6.382;2022-07-22T01:58:49;101996.94;;;18.03;90.85
17855;BME280;9053;53.358;6.382;2022-07-22T02:01:19;101989.78;;;18.01;90.59
17855;BME280;9053;53.358;6.382;2022-07-22T02:03:51;101984.50;;;18.02;90.30
17855;BME280;9053;53.358;6.382;2022-07-22T02:06:23;101980.03;;;18.01;90.12
17855;BME280;9053;53.358;6.382;2022-07-22T02:08:53;101993.28;;;17.98;90.28
17855;BME280;9053;53.358;6.382;2022-07-22T02:11:24;101987.91;;;17.97;89.98
17855;BME280;9053;53.358;6.382;2022-07-22T02:13:54;101986.13;;;17.95;89.54
17855;BME280;9053;53.358;6.382;2022-07-22T02:16:23;101986.06;;;17.92;89.41
17855;BME280;9053;53.358;6.382;2022-07-22T02:18:54;101975.38;;;17.91;89.33
17855;BME280;9053;53.358;6.382;2022-07-22T02:21:26;101980.84;;;17.99;89.66
17855;BME280;9053;53.358;6.382;2022-07-22T02:23:56;101981.69;;;17.96;89.39
17855;BME280;9053;53.358;6.382;2022-07-22T02:26:26;101976.31;;;17.93;89.40
17855;BME280;9053;53.358;6.382;2022-07-22T02:28:56;101983.53;;;17.99;89.50
17855;BME280;9053;53.358;6.382;2022-07-22T02:31:26;101980.97;;;18.03;89.72
17855;BME280;9053;53.358;6.382;2022-07-22T02:33:56;101986.00;;;17.89;89.15
17855;BME280;9053;53.358;6.382;2022-07-22T02:36:29;101983.41;;;17.94;89.35
17855;BME280;9053;53.358;6.382;2022-07-22T02:38:58;101990.69;;;18.01;89.57
17855;BME280;9053;53.358;6.382;2022-07-22T02:41:28;101986.97;;;17.93;87.71
17855;BME280;9053;53.358;6.382;2022-07-22T02:43:58;101991.38;;;17.92;87.18
17855;BME280;9053;53.358;6.382;2022-07-22T02:46:28;101993.94;;;17.88;85.52
17855;BME280;9053;53.358;6.382;2022-07-22T02:48:58;101990.38;;;17.87;85.94
17855;BME280;9053;53.358;6.382;2022-07-22T02:51:31;101990.28;;;17.83;87.84
17855;BME280;9053;53.358;6.382;2022-07-22T02:54:01;101993.78;;;17.80;89.11
17855;BME280;9053;53.358;6.382;2022-07-22T02:56:32;101993.69;;;17.79;90.29
17855;BME280;9053;53.358;6.382;2022-07-22T02:59:01;101990.13;;;17.77;90.82
17855;BME280;9053;53.358;6.382;2022-07-22T03:01:31;101991.03;;;17.79;90.52
17855;BME280;9053;53.358;6.382;2022-07-22T03:04:01;101994.53;;;17.76;90.22
17855;BME280;9053;53.358;6.382;2022-07-22T03:06:34;101992.00;;;17.81;90.84
17855;BME280;9053;53.358;6.382;2022-07-22T03:09:03;101992.06;;;17.84;91.05
17855;BME280;9053;53.358;6.382;2022-07-22T03:11:33;101992.78;;;17.77;90.40
17855;BME280;9053;53.358;6.382;2022-07-22T03:14:03;101992.91;;;17.81;90.20
17855;BME280;9053;53.358;6.382;2022-07-22T03:16:33;101998.38;;;17.87;89.49
17855;BME280;9053;53.358;6.382;2022-07-22T03:19:03;101988.50;;;17.82;88.21
17855;BME280;9053;53.358;6.382;2022-07-22T03:21:35;101993.94;;;17.88;87.85
17855;BME280;9053;53.358;6.382;2022-07-22T03:24:05;101990.13;;;17.78;85.87
17855;BME280;9053;53.358;6.382;2022-07-22T03:26:35;101986.41;;;17.70;84.56
17855;BME280;9053;53.358;6.382;2022-07-22T03:29:05;101991.91;;;17.78;85.13
17855;BME280;9053;53.358;6.382;2022-07-22T03:31:35;101992.63;;;17.70;85.53
17855;BME280;9053;53.358;6.382;2022-07-22T03:34:04;101991.63;;;17.65;86.52
17855;BME280;9053;53.358;6.382;2022-07-22T03:36:37;101990.75;;;17.66;86.84
17855;BME280;9053;53.358;6.382;2022-07-22T03:39:07;101988.31;;;17.76;87.00
17855;BME280;9053;53.358;6.382;2022-07-22T03:41:36;101990.34;;;17.86;87.09
17855;BME280;9053;53.358;6.382;2022-07-22T03:44:06;101988.75;;;17.94;87.28
17855;BME280;9053;53.358;6.382;2022-07-22T03:46:36;101997.66;;;17.96;86.84
17855;BME280;9053;53.358;6.382;2022-07-22T03:49:06;101990.22;;;17.80;86.74
17855;BME280;9053;53.358;6.382;2022-07-22T03:51:38;102005.34;;;17.82;86.28
17855;BME280;9053;53.358;6.382;2022-07-22T03:54:08;102002.50;;;17.74;86.20
17855;BME280;9053;53.358;6.382;2022-07-22T03:56:38;102010.75;;;17.85;86.49
17855;BME280;9053;53.358;6.382;2022-07-22T03:59:08;102004.53;;;17.86;86.63
17855;BME280;9053;53.358;6.382;2022-07-22T04:01:38;102006.91;;;17.74;85.31
17855;BME280;9053;53.358;6.382;2022-07-22T04:04:08;102004.34;;;17.79;86.07
17855;BME280;9053;53.358;6.382;2022-07-22T04:06:40;102009.59;;;17.76;86.19
17855;BME280;9053;53.358;6.382;2022-07-22T04:09:11;102004.22;;;17.72;86.25
17855;BME280;9053;53.358;6.382;2022-07-22T04:11:41;102000.72;;;17.75;86.71
17855;BME280;9053;53.358;6.382;2022-07-22T04:14:11;102008.75;;;17.77;86.38
17855;BME280;9053;53.358;6.382;2022-07-22T04:16:42;102004.16;;;17.69;84.99
17855;BME280;9053;53.358;6.382;2022-07-22T04:19:12;102001.22;;;17.59;84.30
17855;BME280;9053;53.358;6.382;2022-07-22T04:21:45;102001.19;;;17.57;84.63
17855;BME280;9053;53.358;6.382;2022-07-22T04:24:15;102000.47;;;17.64;85.04
17855;BME280;9053;53.358;6.382;2022-07-22T04:26:44;101996.19;;;17.71;85.63
17855;BME280;9053;53.358;6.382;2022-07-22T04:29:14;101996.28;;;17.74;86.34
17855;BME280;9053;53.358;6.382;2022-07-22T04:31:44;102006.91;;;17.74;86.85
17855;BME280;9053;53.358;6.382;2022-07-22T04:34:14;102003.44;;;17.77;86.74
17855;BME280;9053;53.358;6.382;2022-07-22T04:36:46;101999.00;;;17.79;87.04
17855;BME280;9053;53.358;6.382;2022-07-22T04:39:16;102006.25;;;17.83;86.92
17855;BME280;9053;53.358;6.382;2022-07-22T04:41:46;102010.69;;;17.82;86.50
17855;BME280;9053;53.358;6.382;2022-07-22T04:44:16;101999.09;;;17.80;85.97
17855;BME280;9053;53.358;6.382;2022-07-22T04:46:45;101998.09;;;17.77;85.68
17855;BME280;9053;53.358;6.382;2022-07-22T04:49:15;102005.94;;;17.70;84.99
17855;BME280;9053;53.358;6.382;2022-07-22T04:51:48;101995.22;;;17.67;85.60
17855;BME280;9053;53.358;6.382;2022-07-22T04:54:18;101995.19;;;17.66;85.34
17855;BME280;9053;53.358;6.382;2022-07-22T04:56:48;102000.59;;;17.70;85.62
17855;BME280;9053;53.358;6.382;2022-07-22T04:59:18;101999.66;;;17.68;85.63
17855;BME280;9053;53.358;6.382;2022-07-22T05:01:49;101998.72;;;17.65;84.82
17855;BME280;9053;53.358;6.382;2022-07-22T05:04:19;101991.69;;;17.68;85.00
17855;BME280;9053;53.358;6.382;2022-07-22T05:06:52;101993.50;;;17.69;85.00
17855;BME280;9053;53.358;6.382;2022-07-22T05:09:21;101986.53;;;17.74;84.78
17855;BME280;9053;53.358;6.382;2022-07-22T05:11:51;101995.34;;;17.73;84.60
17855;BME280;9053;53.358;6.382;2022-07-22T05:14:21;101984.81;;;17.77;85.46
17855;BME280;9053;53.358;6.382;2022-07-22T05:16:51;101990.28;;;17.83;86.12
17855;BME280;9053;53.358;6.382;2022-07-22T05:19:21;101985.00;;;17.84;86.17
17855;BME280;9053;53.358;6.382;2022-07-22T05:21:53;101985.97;;;17.88;86.50
17855;BME280;9053;53.358;6.382;2022-07-22T05:24:23;101990.41;;;17.89;86.75
17855;BME280;9053;53.358;6.382;2022-07-22T05:26:53;101984.97;;;17.83;86.36
17855;BME280;9053;53.358;6.382;2022-07-22T05:29:23;101984.81;;;17.77;86.80
17855;BME280;9053;53.358;6.382;2022-07-22T05:31:53;101981.09;;;17.70;86.59
17855;BME280;9053;53.358;6.382;2022-07-22T05:34:23;101983.81;;;17.73;86.87
17855;BME280;9053;53.358;6.382;2022-07-22T05:36:55;101984.75;;;17.75;86.90
17855;BME280;9053;53.358;6.382;2022-07-22T05:39:25;101983.88;;;17.74;86.97
17855;BME280;9053;53.358;6.382;2022-07-22T05:41:55;101985.91;;;17.86;86.98
17855;BME280;9053;53.358;6.382;2022-07-22T05:44:24;101990.56;;;17.95;87.29
17855;BME280;9053;53.358;6.382;2022-07-22T05:46:54;101994.16;;;17.97;85.04
17855;BME280;9053;53.358;6.382;2022-07-22T05:49:24;101998.66;;;18.01;84.34
17855;BME280;9053;53.358;6.382;2022-07-22T05:51:57;102003.16;;;18.04;83.45
17855;BME280;9053;53.358;6.382;2022-07-22T05:54:27;101994.34;;;18.06;82.66
17855;BME280;9053;53.358;6.382;2022-07-22T05:56:57;102005.06;;;18.09;82.32
17855;BME280;9053;53.358;6.382;2022-07-22T05:59:27;102006.84;;;18.10;81.95
17855;BME280;9053;53.358;6.382;2022-07-22T06:01:57;102013.91;;;18.08;81.33
17855;BME280;9053;53.358;6.382;2022-07-22T06:04:26;102011.44;;;18.17;81.58
17855;BME280;9053;53.358;6.382;2022-07-22T06:06:59;102006.13;;;18.17;80.53
17855;BME280;9053;53.358;6.382;2022-07-22T06:09:29;102012.56;;;18.29;80.79
17855;BME280;9053;53.358;6.382;2022-07-22T06:11:58;102008.06;;;18.26;80.69
17855;BME280;9053;53.358;6.382;2022-07-22T06:14:28;102010.63;;;18.22;81.54
17855;BME280;9053;53.358;6.382;2022-07-22T06:16:58;102013.28;;;18.20;80.97
17855;BME280;9053;53.358;6.382;2022-07-22T06:19:28;102009.78;;;18.23;81.04
17855;BME280;9053;53.358;6.382;2022-07-22T06:22:01;102007.06;;;18.20;81.31
17855;BME280;9053;53.358;6.382;2022-07-22T06:24:31;102015.22;;;18.27;81.54
17855;BME280;9053;53.358;6.382;2022-07-22T06:27:01;102018.88;;;18.34;81.36
17855;BME280;9053;53.358;6.382;2022-07-22T06:29:31;102014.47;;;18.36;81.80
17855;BME280;9053;53.358;6.382;2022-07-22T06:32:00;102023.41;;;18.38;81.90
17855;BME280;9053;53.358;6.382;2022-07-22T06:34:30;102015.53;;;18.44;82.35
17855;BME280;9053;53.358;6.382;2022-07-22T06:37:04;102021.88;;;18.51;82.78
17855;BME280;9053;53.358;6.382;2022-07-22T06:39:36;102021.97;;;18.55;83.04
17855;BME280;9053;53.358;6.382;2022-07-22T06:42:06;102019.31;;;18.57;82.94
17855;BME280;9053;53.358;6.382;2022-07-22T06:44:36;102015.91;;;18.63;82.71
17855;BME280;9053;53.358;6.382;2022-07-22T06:47:06;102013.25;;;18.64;81.71
17855;BME280;9053;53.358;6.382;2022-07-22T06:49:37;102008.06;;;18.70;81.58
17855;BME280;9053;53.358;6.382;2022-07-22T06:52:12;102015.34;;;18.79;81.51
17855;BME280;9053;53.358;6.382;2022-07-22T06:54:42;102016.38;;;18.86;81.52
17855;BME280;9053;53.358;6.382;2022-07-22T06:57:12;102013.84;;;18.93;81.95
17855;BME280;9053;53.358;6.382;2022-07-22T06:59:41;102012.97;;;18.94;80.86
17855;BME280;9053;53.358;6.382;2022-07-22T07:02:11;102013.84;;;18.95;80.75
17855;BME280;9053;53.358;6.382;2022-07-22T07:04:41;102003.28;;;18.98;80.67
17855;BME280;9053;53.358;6.382;2022-07-22T07:07:14;102012.22;;;19.01;80.53
17855;BME280;9053;53.358;6.382;2022-07-22T07:09:47;102011.41;;;19.06;80.44
17855;BME280;9053;53.358;6.382;2022-07-22T07:12:17;101998.06;;;19.07;80.71
17855;BME280;9053;53.358;6.382;2022-07-22T07:14:47;102003.41;;;19.07;80.37
17855;BME280;9053;53.358;6.382;2022-07-22T07:17:37;102010.53;;;19.07;79.89
17855;BME280;9053;53.358;6.382;2022-07-22T07:20:08;102007.09;;;19.14;80.29
17855;BME280;9053;53.358;6.382;2022-07-22T07:22:40;102006.13;;;19.09;80.54
17855;BME280;9053;53.358;6.382;2022-07-22T07:25:11;102002.66;;;19.13;80.90
17855;BME280;9053;53.358;6.382;2022-07-22T07:27:49;102007.19;;;19.18;81.24
17855;BME280;9053;53.358;6.382;2022-07-22T07:30:20;102001.84;;;19.18;80.88
17855;BME280;9053;53.358;6.382;2022-07-22T07:32:50;102005.66;;;19.33;81.56
17855;BME280;9053;53.358;6.382;2022-07-22T07:35:20;102003.06;;;19.39;81.36
17855;BME280;9053;53.358;6.382;2022-07-22T07:37:59;102004.09;;;19.49;81.73
17855;BME280;9053;53.358;6.382;2022-07-22T07:40:29;102005.94;;;19.51;80.60
17855;BME280;9053;53.358;6.382;2022-07-22T07:42:59;102004.16;;;19.52;80.28
17855;BME280;9053;53.358;6.382;2022-07-22T07:45:30;102009.56;;;19.56;80.59
17855;BME280;9053;53.358;6.382;2022-07-22T07:48:00;102007.59;;;19.44;80.80
17855;BME280;9053;53.358;6.382;2022-07-22T07:50:30;102007.75;;;19.54;80.87
17855;BME280;9053;53.358;6.382;2022-07-22T07:53:03;102007.69;;;19.51;80.76
17855;BME280;9053;53.358;6.382;2022-07-22T07:55:33;102011.38;;;19.59;81.14
17855;BME280;9053;53.358;6.382;2022-07-22T07:58:06;102006.97;;;19.61;80.50
17855;BME280;9053;53.358;6.382;2022-07-22T08:00:36;102010.50;;;19.58;79.78
17855;BME280;9053;53.358;6.382;2022-07-22T08:03:08;102011.38;;;19.60;80.08
17855;BME280;9053;53.358;6.382;2022-07-22T08:05:39;101999.00;;;19.64;80.22
17855;BME280;9053;53.358;6.382;2022-07-22T08:08:12;102006.16;;;19.66;79.54
17855;BME280;9053;53.358;6.382;2022-07-22T08:10:42;102006.13;;;19.65;79.44
17855;BME280;9053;53.358;6.382;2022-07-22T08:13:24;102013.19;;;19.63;79.71
17855;BME280;9053;53.358;6.382;2022-07-22T08:15:54;102007.84;;;19.63;79.56
17855;BME280;9053;53.358;6.382;2022-07-22T08:18:25;102007.94;;;19.66;79.71
17855;BME280;9053;53.358;6.382;2022-07-22T08:20:56;102010.63;;;19.67;78.37
17855;BME280;9053;53.358;6.382;2022-07-22T08:23:29;102007.13;;;19.69;78.01
17855;BME280;9053;53.358;6.382;2022-07-22T08:25:59;102008.94;;;19.71;78.47
17855;BME280;9053;53.358;6.382;2022-07-22T08:28:29;102011.59;;;19.71;78.68
17855;BME280;9053;53.358;6.382;2022-07-22T08:30:58;102015.13;;;19.70;78.38
17855;BME280;9053;53.358;6.382;2022-07-22T08:33:31;102016.78;;;19.65;78.47
17855;BME280;9053;53.358;6.382;2022-07-22T08:36:01;102015.97;;;19.67;78.69
17855;BME280;9053;53.358;6.382;2022-07-22T08:38:35;102027.47;;;19.65;78.58
17855;BME280;9053;53.358;6.382;2022-07-22T08:41:05;102026.50;;;19.60;79.25
17855;BME280;9053;53.358;6.382;2022-07-22T08:43:36;102030.25;;;19.70;80.11
17855;BME280;9053;53.358;6.382;2022-07-22T08:46:10;102029.41;;;19.72;80.64
17855;BME280;9053;53.358;6.382;2022-07-22T08:48:40;102034.81;;;19.77;81.37
17855;BME280;9053;53.358;6.382;2022-07-22T08:51:11;102026.06;;;19.87;81.41
17855;BME280;9053;53.358;6.382;2022-07-22T08:53:44;102026.94;;;19.86;81.28
17855;BME280;9053;53.358;6.382;2022-07-22T08:56:14;102033.13;;;19.83;81.66
17855;BME280;9053;53.358;6.382;2022-07-22T08:58:44;102029.53;;;19.81;81.17
17855;BME280;9053;53.358;6.382;2022-07-22T09:01:15;102031.22;;;19.73;80.36
17855;BME280;9053;53.358;6.382;2022-07-22T09:03:48;102029.50;;;19.78;81.16
17855;BME280;9053;53.358;6.382;2022-07-22T09:06:20;102025.06;;;19.80;81.00
17855;BME280;9053;53.358;6.382;2022-07-22T09:08:55;102026.03;;;19.85;80.92
17855;BME280;9053;53.358;6.382;2022-07-22T09:11:26;102029.63;;;19.87;80.32
17855;BME280;9053;53.358;6.382;2022-07-22T09:13:58;102028.94;;;20.01;80.67
17855;BME280;9053;53.358;6.382;2022-07-22T09:16:39;102021.06;;;20.13;80.52
17855;BME280;9053;53.358;6.382;2022-07-22T09:19:10;102022.84;;;20.13;79.26
17855;BME280;9053;53.358;6.382;2022-07-22T09:21:42;102022.91;;;20.17;79.22
17855;BME280;9053;53.358;6.382;2022-07-22T09:24:29;102023.63;;;20.05;78.50
17855;BME280;9053;53.358;6.382;2022-07-22T09:26:59;102028.97;;;20.04;80.10
17855;BME280;9053;53.358;6.382;2022-07-22T09:29:30;102042.00;;;19.82;81.48
17855;BME280;9053;53.358;6.382;2022-07-22T09:32:06;102037.44;;;19.75;81.84
17855;BME280;9053;53.358;6.382;2022-07-22T09:34:37;102034.84;;;19.78;81.95
17855;BME280;9053;53.358;6.382;2022-07-22T09:37:07;102036.47;;;19.70;81.77
17855;BME280;9053;53.358;6.382;2022-07-22T09:39:39;102030.28;;;19.73;82.30
17855;BME280;9053;53.358;6.382;2022-07-22T09:42:09;102040.25;;;19.84;82.02
17855;BME280;9053;53.358;6.382;2022-07-22T09:44:42;102042.84;;;19.80;80.52
17855;BME280;9053;53.358;6.382;2022-07-22T09:47:27;102043.84;;;19.86;81.29
17855;BME280;9053;53.358;6.382;2022-07-22T09:50:13;102043.94;;;19.93;81.84
17855;BME280;9053;53.358;6.382;2022-07-22T09:52:44;102046.84;;;20.09;82.10
17855;BME280;9053;53.358;6.382;2022-07-22T09:55:19;102044.22;;;20.11;80.30
17855;BME280;9053;53.358;6.382;2022-07-22T09:57:50;102044.25;;;20.14;79.70
17855;BME280;9053;53.358;6.382;2022-07-22T10:00:22;102042.44;;;20.12;79.46
17855;BME280;9053;53.358;6.382;2022-07-22T10:02:55;102042.50;;;20.16;78.50
17855;BME280;9053;53.358;6.382;2022-07-22T10:05:26;102042.59;;;20.25;78.99
17855;BME280;9053;53.358;6.382;2022-07-22T10:07:57;102046.31;;;20.37;79.24
17855;BME280;9053;53.358;6.382;2022-07-22T10:10:31;102042.91;;;20.50;78.20
17855;BME280;9053;53.358;6.382;2022-07-22T10:13:02;102043.00;;;20.56;76.21
17855;BME280;9053;53.358;6.382;2022-07-22T10:15:33;102044.97;;;20.69;77.38
17855;BME280;9053;53.358;6.382;2022-07-22T10:18:06;102039.78;;;20.85;77.04
17855;BME280;9053;53.358;6.382;2022-07-22T10:20:36;102038.09;;;20.94;77.47
17855;BME280;9053;53.358;6.382;2022-07-22T10:23:07;102038.00;;;20.87;76.49
17855;BME280;9053;53.358;6.382;2022-07-22T10:25:54;102040.72;;;20.90;77.37
17855;BME280;9053;53.358;6.382;2022-07-22T10:28:26;102038.97;;;20.95;77.37
17855;BME280;9053;53.358;6.382;2022-07-22T10:31:17;102034.53;;;20.99;77.88
17855;BME280;9053;53.358;6.382;2022-07-22T10:33:49;102039.06;;;21.03;78.12
17855;BME280;9053;53.358;6.382;2022-07-22T10:36:30;102031.84;;;20.95;77.82
17855;BME280;9053;53.358;6.382;2022-07-22T10:39:03;102025.50;;;20.86;77.55
17855;BME280;9053;53.358;6.382;2022-07-22T10:41:37;102021.88;;;20.78;77.19
17855;BME280;9053;53.358;6.382;2022-07-22T10:44:08;102017.34;;;20.73;77.05
17855;BME280;9053;53.358;6.382;2022-07-22T10:46:48;102014.63;;;20.67;77.23
17855;BME280;9053;53.358;6.382;2022-07-22T10:49:19;102017.28;;;20.66;77.03
17855;BME280;9053;53.358;6.382;2022-07-22T10:52:11;102012.75;;;20.60;75.49
17855;BME280;9053;53.358;6.382;2022-07-22T10:55:18;102013.75;;;20.68;76.94
17855;BME280;9053;53.358;6.382;2022-07-22T10:57:50;102006.69;;;20.75;76.39
17855;BME280;9053;53.358;6.382;2022-07-22T11:00:20;102007.66;;;20.83;76.81
17855;BME280;9053;53.358;6.382;2022-07-22T11:02:50;102013.94;;;20.88;76.07
17855;BME280;9053;53.358;6.382;2022-07-22T11:05:24;102013.09;;;20.91;76.41
17855;BME280;9053;53.358;6.382;2022-07-22T11:07:56;102007.72;;;20.91;76.83
17855;BME280;9053;53.358;6.382;2022-07-22T11:10:25;102015.72;;;20.88;77.39
17855;BME280;9053;53.358;6.382;2022-07-22T11:12:58;102016.63;;;20.87;77.87
17855;BME280;9053;53.358;6.382;2022-07-22T11:15:28;102010.34;;;20.85;78.44
17855;BME280;9053;53.358;6.382;2022-07-22T11:17:58;102009.44;;;20.83;78.82
17855;BME280;9053;53.358;6.382;2022-07-22T11:20:29;102012.06;;;20.78;78.01
17855;BME280;9053;53.358;6.382;2022-07-22T11:22:59;102011.19;;;20.81;78.73
17855;BME280;9053;53.358;6.382;2022-07-22T11:25:29;102013.81;;;20.76;77.50
17855;BME280;9053;53.358;6.382;2022-07-22T11:28:01;102008.44;;;20.71;76.69
17855;BME280;9053;53.358;6.382;2022-07-22T11:30:31;102006.66;;;20.69;77.38
17855;BME280;9053;53.358;6.382;2022-07-22T11:33:02;102003.06;;;20.67;76.72
17855;BME280;9053;53.358;6.382;2022-07-22T11:35:32;102004.81;;;20.68;77.24
17855;BME280;9053;53.358;6.382;2022-07-22T11:38:04;102004.84;;;20.66;76.81
17855;BME280;9053;53.358;6.382;2022-07-22T11:40:37;102007.56;;;20.72;76.73
17855;BME280;9053;53.358;6.382;2022-07-22T11:43:09;102009.41;;;20.77;77.16
17855;BME280;9053;53.358;6.382;2022-07-22T11:45:56;102005.81;;;20.78;78.21
17855;BME280;9053;53.358;6.382;2022-07-22T11:48:26;102006.63;;;20.70;77.62
17855;BME280;9053;53.358;6.382;2022-07-22T11:50:59;102002.25;;;20.74;77.85
17855;BME280;9053;53.358;6.382;2022-07-22T11:53:29;102003.94;;;20.67;78.75
17855;BME280;9053;53.358;6.382;2022-07-22T11:56:01;102002.19;;;20.69;78.66
17855;BME280;9053;53.358;6.382;2022-07-22T11:58:39;101998.66;;;20.73;77.93
17855;BME280;9053;53.358;6.382;2022-07-22T12:01:11;102008.56;;;20.82;78.45
17855;BME280;9053;53.358;6.382;2022-07-22T12:03:45;102008.63;;;20.91;78.52
17855;BME280;9053;53.358;6.382;2022-07-22T12:06:16;102011.28;;;20.91;78.84
17855;BME280;9053;53.358;6.382;2022-07-22T12:08:48;102017.56;;;20.92;78.96
17855;BME280;9053;53.358;6.382;2022-07-22T12:11:20;102014.84;;;20.89;77.49
17855;BME280;9053;53.358;6.382;2022-07-22T12:14:05;102013.06;;;20.88;78.09
17855;BME280;9053;53.358;6.382;2022-07-22T12:16:43;102006.75;;;20.80;77.07
17855;BME280;9053;53.358;6.382;2022-07-22T12:19:13;102001.28;;;20.70;78.07
17855;BME280;9053;53.358;6.382;2022-07-22T12:21:53;101999.50;;;20.71;77.22
17855;BME280;9053;53.358;6.382;2022-07-22T12:24:28;102002.19;;;20.69;77.25
17855;BME280;9053;53.358;6.382;2022-07-22T12:27:00;101997.69;;;20.68;77.55
17855;BME280;9053;53.358;6.382;2022-07-22T12:29:43;101996.84;;;20.71;77.08
17855;BME280;9053;53.358;6.382;2022-07-22T12:32:16;101999.50;;;20.69;76.84
17855;BME280;9053;53.358;6.382;2022-07-22T12:34:55;101993.38;;;20.80;77.89
17855;BME280;9053;53.358;6.382;2022-07-22T12:37:26;101994.38;;;20.89;76.41
17855;BME280;9053;53.358;6.382;2022-07-22T12:39:58;101990.75;;;20.84;76.83
17855;BME280;9053;53.358;6.382;2022-07-22T12:42:30;102004.19;;;20.92;77.11
17855;BME280;9053;53.358;6.382;2022-07-22T12:45:05;101996.16;;;20.92;75.26
17855;BME280;9053;53.358;6.382;2022-07-22T12:47:47;101995.28;;;20.93;75.66
17855;BME280;9053;53.358;6.382;2022-07-22T12:50:21;102008.72;;;20.99;75.91
17855;BME280;9053;53.358;6.382;2022-07-22T12:52:53;102009.59;;;21.01;75.58
17855;BME280;9053;53.358;6.382;2022-07-22T12:55:44;102010.53;;;21.03;75.99
17855;BME280;9053;53.358;6.382;2022-07-22T12:58:15;102012.28;;;21.01;75.67
17855;BME280;9053;53.358;6.382;2022-07-22T13:00:50;102012.13;;;20.86;75.57
17855;BME280;9053;53.358;6.382;2022-07-22T13:03:21;102016.66;;;20.93;76.70
17855;BME280;9053;53.358;6.382;2022-07-22T13:05:54;102015.81;;;20.95;76.49
17855;BME280;9053;53.358;6.382;2022-07-22T13:08:25;102004.25;;;21.00;77.81
17855;BME280;9053;53.358;6.382;2022-07-22T13:11:11;102010.56;;;21.08;76.85
17855;BME280;9053;53.358;6.382;2022-07-22T13:13:41;101994.53;;;21.11;76.13
17855;BME280;9053;53.358;6.382;2022-07-22T13:16:15;101989.25;;;21.15;75.96
17855;BME280;9053;53.358;6.382;2022-07-22T13:18:45;101983.91;;;21.18;76.07
17855;BME280;9053;53.358;6.382;2022-07-22T13:21:14;101980.41;;;21.26;76.09
17855;BME280;9053;53.358;6.382;2022-07-22T13:23:44;101986.63;;;21.26;74.92